sensor_id;sensor_type;location;lat;lon;timestamp;P1;durP1;ratioP1;P2;durP2;ratioP2
38783;SDS011;24531;45.502;12.238;2023-08-30T00:00:17;1.88;;;0.80;;
38783;SDS011;24531;45.502;12.238;2023-08-30T00:02:45;1.20;;;0.70;;
38783;SDS011;24531;45.502;12.238;2023-08-30T00:05:11;1.30;;;0.60;;
38783;SDS011;24531;45.502;12.238;2023-08-30T00:07:38;3.25;;;0.80;;
38783;SDS011;24531;45.502;12.238;2023-08-30T00:10:03;3.22;;;0.68;;
38783;SDS011;24531;45.502;12.238;2023-08-30T00:12:29;3.33;;;0.77;;
38783;SDS011;24531;45.502;12.238;2023-08-30T00:14:55;2.05;;;0.52;;
38783;SDS011;24531;45.502;12.238;2023-08-30T00:17:21;4.78;;;0.93;;
38783;SDS011;24531;45.502;12.238;2023-08-30T00:19:47;4.05;;;0.70;;
38783;SDS011;24531;45.502;12.238;2023-08-30T00:22:13;2.50;;;0.50;;
38783;SDS011;24531;45.502;12.238;2023-08-30T00:24:39;0.60;;;0.50;;
38783;SDS011;24531;45.502;12.238;2023-08-30T00:27:04;1.73;;;0.60;;
38783;SDS011;24531;45.502;12.238;2023-08-30T00:29:30;4.28;;;0.80;;
38783;SDS011;24531;45.502;12.238;2023-08-30T00:31:56;2.65;;;0.77;;
38783;SDS011;24531;45.502;12.238;2023-08-30T00:34:22;1.35;;;0.75;;
38783;SDS011;24531;45.502;12.238;2023-08-30T00:36:47;2.15;;;0.60;;
38783;SDS011;24531;45.502;12.238;2023-08-30T00:39:13;1.35;;;0.80;;
38783;SDS011;24531;45.502;12.238;2023-08-30T00:41:39;1.17;;;0.75;;
38783;SDS011;24531;45.502;12.238;2023-08-30T00:44:05;2.55;;;0.82;;
38783;SDS011;24531;45.502;12.238;2023-08-30T00:46:31;2.78;;;0.50;;
38783;SDS011;24531;45.502;12.238;2023-08-30T00:48:58;1.65;;;0.75;;
38783;SDS011;24531;45.502;12.238;2023-08-30T00:51:25;0.80;;;0.50;;
38783;SDS011;24531;45.502;12.238;2023-08-30T00:53:51;1.25;;;0.60;;
38783;SDS011;24531;45.502;12.238;2023-08-30T00:56:17;1.10;;;0.50;;
38783;SDS011;24531;45.502;12.238;2023-08-30T00:58:44;1.48;;;0.60;;
38783;SDS011;24531;45.502;12.238;2023-08-30T01:01:10;2.72;;;0.68;;
38783;SDS011;24531;45.502;12.238;2023-08-30T01:03:37;2.85;;;1.15;;
38783;SDS011;24531;45.502;12.238;2023-08-30T01:06:03;2.33;;;0.77;;
38783;SDS011;24531;45.502;12.238;2023-08-30T01:08:28;1.08;;;0.80;;
38783;SDS011;24531;45.502;12.238;2023-08-30T01:16:25;1.08;;;0.68;;
38783;SDS011;24531;45.502;12.238;2023-08-30T01:18:51;1.52;;;0.55;;
38783;SDS011;24531;45.502;12.238;2023-08-30T01:21:28;5.05;;;1.02;;
38783;SDS011;24531;45.502;12.238;2023-08-30T01:24:02;2.05;;;0.90;;
38783;SDS011;24531;45.502;12.238;2023-08-30T01:29:00;5.32;;;1.02;;
38783;SDS011;24531;45.502;12.238;2023-08-30T01:31:28;2.17;;;0.75;;
38783;SDS011;24531;45.502;12.238;2023-08-30T01:33:58;1.75;;;0.70;;
38783;SDS011;24531;45.502;12.238;2023-08-30T01:36:25;1.95;;;0.80;;
38783;SDS011;24531;45.502;12.238;2023-08-30T01:38:52;2.22;;;0.73;;
38783;SDS011;24531;45.502;12.238;2023-08-30T01:41:18;0.95;;;0.60;;
38783;SDS011;24531;45.502;12.238;2023-08-30T01:43:45;2.80;;;0.52;;
38783;SDS011;24531;45.502;12.238;2023-08-30T01:46:12;3.28;;;0.63;;
38783;SDS011;24531;45.502;12.238;2023-08-30T01:48:39;5.80;;;1.02;;
38783;SDS011;24531;45.502;12.238;2023-08-30T01:51:05;1.52;;;0.65;;
38783;SDS011;24531;45.502;12.238;2023-08-30T01:53:32;1.38;;;0.50;;
38783;SDS011;24531;45.502;12.238;2023-08-30T01:55:59;3.42;;;0.65;;
38783;SDS011;24531;45.502;12.238;2023-08-30T01:58:24;2.25;;;0.85;;
38783;SDS011;24531;45.502;12.238;2023-08-30T02:00:50;0.57;;;0.40;;
38783;SDS011;24531;45.502;12.238;2023-08-30T02:03:16;2.90;;;0.60;;
38783;SDS011;24531;45.502;12.238;2023-08-30T02:05:48;2.22;;;0.60;;
38783;SDS011;24531;45.502;12.238;2023-08-30T02:08:29;2.25;;;0.60;;
38783;SDS011;24531;45.502;12.238;2023-08-30T02:11:01;0.40;;;0.40;;
38783;SDS011;24531;45.502;12.238;2023-08-30T02:13:30;7.78;;;0.98;;
38783;SDS011;24531;45.502;12.238;2023-08-30T02:15:58;1.52;;;0.65;;
38783;SDS011;24531;45.502;12.238;2023-08-30T02:18:25;2.40;;;0.98;;
38783;SDS011;24531;45.502;12.238;2023-08-30T02:20:52;1.23;;;0.73;;
38783;SDS011;24531;45.502;12.238;2023-08-30T02:23:18;4.63;;;0.90;;
38783;SDS011;24531;45.502;12.238;2023-08-30T02:25:45;1.27;;;0.50;;
38783;SDS011;24531;45.502;12.238;2023-08-30T02:28:11;3.28;;;0.57;;
38783;SDS011;24531;45.502;12.238;2023-08-30T02:30:36;0.95;;;0.60;;
38783;SDS011;24531;45.502;12.238;2023-08-30T02:33:02;1.45;;;0.70;;
38783;SDS011;24531;45.502;12.238;2023-08-30T02:35:28;4.40;;;0.70;;
38783;SDS011;24531;45.502;12.238;2023-08-30T02:37:53;2.40;;;0.70;;
38783;SDS011;24531;45.502;12.238;2023-08-30T02:40:19;3.55;;;0.77;;
38783;SDS011;24531;45.502;12.238;2023-08-30T02:42:45;2.20;;;0.40;;
38783;SDS011;24531;45.502;12.238;2023-08-30T02:45:10;0.80;;;0.57;;
38783;SDS011;24531;45.502;12.238;2023-08-30T02:47:36;2.45;;;0.60;;
38783;SDS011;24531;45.502;12.238;2023-08-30T02:50:01;4.05;;;0.70;;
38783;SDS011;24531;45.502;12.238;2023-08-30T02:52:27;1.50;;;0.40;;
38783;SDS011;24531;45.502;12.238;2023-08-30T02:54:53;2.05;;;0.60;;
38783;SDS011;24531;45.502;12.238;2023-08-30T02:57:18;1.63;;;0.80;;
38783;SDS011;24531;45.502;12.238;2023-08-30T02:59:44;2.78;;;0.40;;
38783;SDS011;24531;45.502;12.238;2023-08-30T03:02:09;2.15;;;0.65;;
38783;SDS011;24531;45.502;12.238;2023-08-30T03:04:35;2.47;;;0.63;;
38783;SDS011;24531;45.502;12.238;2023-08-30T03:07:01;8.27;;;0.60;;
38783;SDS011;24531;45.502;12.238;2023-08-30T03:09:26;2.05;;;0.73;;
38783;SDS011;24531;45.502;12.238;2023-08-30T03:11:52;4.70;;;0.80;;
38783;SDS011;24531;45.502;12.238;2023-08-30T03:14:18;1.65;;;0.50;;
38783;SDS011;24531;45.502;12.238;2023-08-30T03:16:43;0.85;;;0.63;;
38783;SDS011;24531;45.502;12.238;2023-08-30T03:19:11;1.70;;;0.55;;
38783;SDS011;24531;45.502;12.238;2023-08-30T03:21:37;1.00;;;0.40;;
38783;SDS011;24531;45.502;12.238;2023-08-30T03:24:02;1.63;;;0.50;;
38783;SDS011;24531;45.502;12.238;2023-08-30T03:26:28;3.90;;;0.75;;
38783;SDS011;24531;45.502;12.238;2023-08-30T03:28:54;0.80;;;0.40;;
38783;SDS011;24531;45.502;12.238;2023-08-30T03:31:20;2.00;;;0.60;;
38783;SDS011;24531;45.502;12.238;2023-08-30T03:33:47;2.05;;;0.52;;
38783;SDS011;24531;45.502;12.238;2023-08-30T03:36:14;2.70;;;0.50;;
38783;SDS011;24531;45.502;12.238;2023-08-30T03:38:41;0.60;;;0.40;;
38783;SDS011;24531;45.502;12.238;2023-08-30T03:41:09;3.30;;;0.40;;
38783;SDS011;24531;45.502;12.238;2023-08-30T03:43:38;1.27;;;0.50;;
38783;SDS011;24531;45.502;12.238;2023-08-30T03:46:04;0.50;;;0.38;;
38783;SDS011;24531;45.502;12.238;2023-08-30T03:48:29;0.82;;;0.65;;
38783;SDS011;24531;45.502;12.238;2023-08-30T03:50:56;0.75;;;0.52;;
38783;SDS011;24531;45.502;12.238;2023-08-30T03:53:22;1.60;;;0.57;;
38783;SDS011;24531;45.502;12.238;2023-08-30T03:55:48;1.73;;;0.40;;
38783;SDS011;24531;45.502;12.238;2023-08-30T03:58:14;4.22;;;0.40;;
38783;SDS011;24531;45.502;12.238;2023-08-30T04:00:40;2.75;;;0.63;;
38783;SDS011;24531;45.502;12.238;2023-08-30T04:03:07;5.10;;;0.45;;
38783;SDS011;24531;45.502;12.238;2023-08-30T04:05:34;1.23;;;0.50;;
38783;SDS011;24531;45.502;12.238;2023-08-30T04:08:01;1.77;;;0.40;;
38783;SDS011;24531;45.502;12.238;2023-08-30T04:10:28;1.33;;;0.50;;
38783;SDS011;24531;45.502;12.238;2023-08-30T04:12:53;2.00;;;1.33;;
38783;SDS011;24531;45.502;12.238;2023-08-30T04:15:19;3.55;;;1.15;;
38783;SDS011;24531;45.502;12.238;2023-08-30T04:17:45;1.95;;;0.90;;
38783;SDS011;24531;45.502;12.238;2023-08-30T04:20:10;2.22;;;0.80;;
38783;SDS011;24531;45.502;12.238;2023-08-30T04:22:36;1.55;;;0.68;;
38783;SDS011;24531;45.502;12.238;2023-08-30T04:25:03;6.80;;;0.68;;
38783;SDS011;24531;45.502;12.238;2023-08-30T04:27:29;2.75;;;0.73;;
38783;SDS011;24531;45.502;12.238;2023-08-30T04:29:54;1.73;;;0.80;;
38783;SDS011;24531;45.502;12.238;2023-08-30T04:32:20;1.33;;;0.60;;
38783;SDS011;24531;45.502;12.238;2023-08-30T04:34:46;1.25;;;0.50;;
38783;SDS011;24531;45.502;12.238;2023-08-30T04:37:11;1.42;;;0.52;;
38783;SDS011;24531;45.502;12.238;2023-08-30T04:39:37;2.88;;;0.80;;
38783;SDS011;24531;45.502;12.238;2023-08-30T04:42:03;2.67;;;0.57;;
38783;SDS011;24531;45.502;12.238;2023-08-30T04:44:28;4.43;;;0.57;;
38783;SDS011;24531;45.502;12.238;2023-08-30T04:46:54;1.08;;;0.57;;
38783;SDS011;24531;45.502;12.238;2023-08-30T04:49:20;1.77;;;0.80;;
38783;SDS011;24531;45.502;12.238;2023-08-30T04:51:47;3.50;;;0.70;;
38783;SDS011;24531;45.502;12.238;2023-08-30T04:54:12;1.35;;;0.60;;
38783;SDS011;24531;45.502;12.238;2023-08-30T04:56:39;4.88;;;0.60;;
38783;SDS011;24531;45.502;12.238;2023-08-30T04:59:04;0.80;;;0.52;;
38783;SDS011;24531;45.502;12.238;2023-08-30T05:01:30;1.55;;;0.90;;
38783;SDS011;24531;45.502;12.238;2023-08-30T05:03:56;3.22;;;0.65;;
38783;SDS011;24531;45.502;12.238;2023-08-30T05:06:21;1.38;;;0.60;;
38783;SDS011;24531;45.502;12.238;2023-08-30T05:08:47;4.70;;;0.60;;
38783;SDS011;24531;45.502;12.238;2023-08-30T05:11:12;1.02;;;0.50;;
38783;SDS011;24531;45.502;12.238;2023-08-30T05:13:38;2.15;;;0.80;;
38783;SDS011;24531;45.502;12.238;2023-08-30T05:16:04;1.00;;;0.50;;
38783;SDS011;24531;45.502;12.238;2023-08-30T05:18:30;2.35;;;0.73;;
38783;SDS011;24531;45.502;12.238;2023-08-30T05:20:55;1.40;;;0.70;;
38783;SDS011;24531;45.502;12.238;2023-08-30T05:23:21;1.80;;;0.95;;
38783;SDS011;24531;45.502;12.238;2023-08-30T05:25:46;0.60;;;0.50;;
38783;SDS011;24531;45.502;12.238;2023-08-30T05:28:12;1.13;;;0.70;;
38783;SDS011;24531;45.502;12.238;2023-08-30T05:30:40;1.80;;;1.00;;
38783;SDS011;24531;45.502;12.238;2023-08-30T05:33:07;1.73;;;0.90;;
38783;SDS011;24531;45.502;12.238;2023-08-30T05:35:32;1.20;;;0.70;;
38783;SDS011;24531;45.502;12.238;2023-08-30T05:37:58;2.60;;;1.00;;
38783;SDS011;24531;45.502;12.238;2023-08-30T05:40:23;2.67;;;1.10;;
38783;SDS011;24531;45.502;12.238;2023-08-30T05:42:49;2.10;;;1.15;;
38783;SDS011;24531;45.502;12.238;2023-08-30T05:45:15;2.58;;;1.20;;
38783;SDS011;24531;45.502;12.238;2023-08-30T05:47:41;2.72;;;1.02;;
38783;SDS011;24531;45.502;12.238;2023-08-30T05:50:06;3.15;;;1.42;;
38783;SDS011;24531;45.502;12.238;2023-08-30T05:52:33;2.92;;;0.90;;
38783;SDS011;24531;45.502;12.238;2023-08-30T05:54:58;3.10;;;1.00;;
38783;SDS011;24531;45.502;12.238;2023-08-30T05:57:24;2.20;;;0.93;;
38783;SDS011;24531;45.502;12.238;2023-08-30T05:59:50;2.50;;;0.73;;
38783;SDS011;24531;45.502;12.238;2023-08-30T06:02:16;1.23;;;0.70;;
38783;SDS011;24531;45.502;12.238;2023-08-30T06:04:42;1.60;;;0.70;;
38783;SDS011;24531;45.502;12.238;2023-08-30T06:07:07;2.33;;;1.40;;
38783;SDS011;24531;45.502;12.238;2023-08-30T06:09:33;2.65;;;0.75;;
38783;SDS011;24531;45.502;12.238;2023-08-30T06:11:59;3.92;;;0.93;;
38783;SDS011;24531;45.502;12.238;2023-08-30T06:14:24;3.70;;;0.98;;
38783;SDS011;24531;45.502;12.238;2023-08-30T06:16:50;2.63;;;0.68;;
38783;SDS011;24531;45.502;12.238;2023-08-30T06:19:16;1.65;;;1.10;;
38783;SDS011;24531;45.502;12.238;2023-08-30T06:21:41;4.03;;;1.10;;
38783;SDS011;24531;45.502;12.238;2023-08-30T06:24:07;5.55;;;2.00;;
38783;SDS011;24531;45.502;12.238;2023-08-30T06:26:33;1.60;;;1.00;;
38783;SDS011;24531;45.502;12.238;2023-08-30T06:28:58;2.17;;;0.98;;
38783;SDS011;24531;45.502;12.238;2023-08-30T06:31:24;2.88;;;0.98;;
38783;SDS011;24531;45.502;12.238;2023-08-30T06:33:51;3.05;;;0.82;;
38783;SDS011;24531;45.502;12.238;2023-08-30T06:36:16;1.23;;;0.82;;
38783;SDS011;24531;45.502;12.238;2023-08-30T06:38:43;2.85;;;0.90;;
38783;SDS011;24531;45.502;12.238;2023-08-30T06:41:09;1.98;;;1.08;;
38783;SDS011;24531;45.502;12.238;2023-08-30T06:43:34;1.15;;;0.77;;
38783;SDS011;24531;45.502;12.238;2023-08-30T06:46:00;4.03;;;1.40;;
38783;SDS011;24531;45.502;12.238;2023-08-30T06:48:25;1.50;;;0.88;;
38783;SDS011;24531;45.502;12.238;2023-08-30T06:50:51;3.35;;;1.10;;
38783;SDS011;24531;45.502;12.238;2023-08-30T06:53:17;2.10;;;0.90;;
38783;SDS011;24531;45.502;12.238;2023-08-30T06:55:42;4.18;;;0.98;;
38783;SDS011;24531;45.502;12.238;2023-08-30T06:58:08;1.10;;;0.80;;
38783;SDS011;24531;45.502;12.238;2023-08-30T07:00:34;0.82;;;0.60;;
38783;SDS011;24531;45.502;12.238;2023-08-30T07:02:59;0.70;;;0.50;;
38783;SDS011;24531;45.502;12.238;2023-08-30T07:05:25;2.67;;;0.80;;
38783;SDS011;24531;45.502;12.238;2023-08-30T07:07:51;4.57;;;0.98;;
38783;SDS011;24531;45.502;12.238;2023-08-30T07:10:16;1.33;;;0.75;;
38783;SDS011;24531;45.502;12.238;2023-08-30T07:12:42;5.03;;;0.80;;
38783;SDS011;24531;45.502;12.238;2023-08-30T07:15:08;1.75;;;0.93;;
38783;SDS011;24531;45.502;12.238;2023-08-30T07:17:34;1.98;;;0.75;;
38783;SDS011;24531;45.502;12.238;2023-08-30T07:19:59;2.00;;;0.93;;
38783;SDS011;24531;45.502;12.238;2023-08-30T07:22:26;3.25;;;0.57;;
38783;SDS011;24531;45.502;12.238;2023-08-30T07:24:51;1.83;;;0.70;;
38783;SDS011;24531;45.502;12.238;2023-08-30T07:27:17;3.03;;;0.68;;
38783;SDS011;24531;45.502;12.238;2023-08-30T07:29:43;0.73;;;0.43;;
38783;SDS011;24531;45.502;12.238;2023-08-30T07:32:08;0.85;;;0.65;;
38783;SDS011;24531;45.502;12.238;2023-08-30T07:34:34;1.88;;;0.57;;
38783;SDS011;24531;45.502;12.238;2023-08-30T07:37:00;1.80;;;0.70;;
38783;SDS011;24531;45.502;12.238;2023-08-30T07:39:26;1.00;;;0.40;;
38783;SDS011;24531;45.502;12.238;2023-08-30T07:41:52;3.75;;;0.45;;
38783;SDS011;24531;45.502;12.238;2023-08-30T07:44:18;0.65;;;0.28;;
38783;SDS011;24531;45.502;12.238;2023-08-30T07:46:45;0.90;;;0.30;;
38783;SDS011;24531;45.502;12.238;2023-08-30T07:49:10;2.22;;;0.40;;
38783;SDS011;24531;45.502;12.238;2023-08-30T07:51:36;0.20;;;0.20;;
38783;SDS011;24531;45.502;12.238;2023-08-30T07:54:02;1.17;;;0.47;;
38783;SDS011;24531;45.502;12.238;2023-08-30T07:56:27;0.10;;;0.10;;
38783;SDS011;24531;45.502;12.238;2023-08-30T07:58:54;0.93;;;0.47;;
38783;SDS011;24531;45.502;12.238;2023-08-30T08:01:19;0.43;;;0.25;;
38783;SDS011;24531;45.502;12.238;2023-08-30T08:03:45;0.47;;;0.32;;
38783;SDS011;24531;45.502;12.238;2023-08-30T08:06:11;3.20;;;0.40;;
38783;SDS011;24531;45.502;12.238;2023-08-30T08:08:36;2.05;;;0.40;;
38783;SDS011;24531;45.502;12.238;2023-08-30T08:11:02;1.45;;;0.30;;
38783;SDS011;24531;45.502;12.238;2023-08-30T08:13:28;0.57;;;0.28;;
38783;SDS011;24531;45.502;12.238;2023-08-30T08:15:57;1.45;;;0.20;;
38783;SDS011;24531;45.502;12.238;2023-08-30T08:18:23;3.40;;;0.30;;
38783;SDS011;24531;45.502;12.238;2023-08-30T08:20:49;0.40;;;0.22;;
38783;SDS011;24531;45.502;12.238;2023-08-30T08:23:15;1.88;;;0.30;;
38783;SDS011;24531;45.502;12.238;2023-08-30T08:25:40;0.82;;;0.30;;
38783;SDS011;24531;45.502;12.238;2023-08-30T08:28:06;1.30;;;0.35;;
38783;SDS011;24531;45.502;12.238;2023-08-30T08:30:32;1.77;;;0.57;;
38783;SDS011;24531;45.502;12.238;2023-08-30T08:32:57;0.65;;;0.30;;
38783;SDS011;24531;45.502;12.238;2023-08-30T08:35:23;2.47;;;0.30;;
38783;SDS011;24531;45.502;12.238;2023-08-30T08:37:49;3.72;;;0.32;;
38783;SDS011;24531;45.502;12.238;2023-08-30T08:40:15;0.88;;;0.30;;
38783;SDS011;24531;45.502;12.238;2023-08-30T08:42:41;1.65;;;0.40;;
38783;SDS011;24531;45.502;12.238;2023-08-30T08:45:07;0.77;;;0.30;;
38783;SDS011;24531;45.502;12.238;2023-08-30T08:47:36;1.25;;;0.52;;
38783;SDS011;24531;45.502;12.238;2023-08-30T08:50:03;2.00;;;0.40;;
38783;SDS011;24531;45.502;12.238;2023-08-30T08:52:29;2.33;;;0.40;;
38783;SDS011;24531;45.502;12.238;2023-08-30T08:54:55;0.75;;;0.30;;
38783;SDS011;24531;45.502;12.238;2023-08-30T08:57:22;2.30;;;0.50;;
38783;SDS011;24531;45.502;12.238;2023-08-30T08:59:48;0.40;;;0.30;;
38783;SDS011;24531;45.502;12.238;2023-08-30T09:02:15;0.55;;;0.40;;
38783;SDS011;24531;45.502;12.238;2023-08-30T09:04:41;0.70;;;0.40;;
38783;SDS011;24531;45.502;12.238;2023-08-30T09:07:07;0.35;;;0.32;;
38783;SDS011;24531;45.502;12.238;2023-08-30T09:09:33;3.60;;;0.50;;
38783;SDS011;24531;45.502;12.238;2023-08-30T09:11:59;0.75;;;0.50;;
38783;SDS011;24531;45.502;12.238;2023-08-30T09:14:25;3.05;;;0.50;;
38783;SDS011;24531;45.502;12.238;2023-08-30T09:16:54;0.75;;;0.40;;
38783;SDS011;24531;45.502;12.238;2023-08-30T09:19:27;0.80;;;0.40;;
38783;SDS011;24531;45.502;12.238;2023-08-30T09:21:54;2.97;;;0.40;;
38783;SDS011;24531;45.502;12.238;2023-08-30T09:24:24;0.80;;;0.40;;
38783;SDS011;24531;45.502;12.238;2023-08-30T09:26:51;0.88;;;0.50;;
38783;SDS011;24531;45.502;12.238;2023-08-30T09:29:18;1.65;;;0.32;;
38783;SDS011;24531;45.502;12.238;2023-08-30T09:31:44;2.22;;;0.40;;
38783;SDS011;24531;45.502;12.238;2023-08-30T09:34:10;0.35;;;0.32;;
38783;SDS011;24531;45.502;12.238;2023-08-30T09:36:39;1.20;;;0.22;;
38783;SDS011;24531;45.502;12.238;2023-08-30T09:39:10;0.63;;;0.30;;
38783;SDS011;24531;45.502;12.238;2023-08-30T09:41:37;1.63;;;0.52;;
38783;SDS011;24531;45.502;12.238;2023-08-30T09:44:07;0.60;;;0.30;;
38783;SDS011;24531;45.502;12.238;2023-08-30T09:46:39;2.05;;;0.40;;
38783;SDS011;24531;45.502;12.238;2023-08-30T09:49:07;0.68;;;0.50;;
38783;SDS011;24531;45.502;12.238;2023-08-30T09:51:34;1.20;;;0.40;;
38783;SDS011;24531;45.502;12.238;2023-08-30T09:54:03;0.70;;;0.38;;
38783;SDS011;24531;45.502;12.238;2023-08-30T09:56:30;2.17;;;0.60;;
38783;SDS011;24531;45.502;12.238;2023-08-30T09:58:58;0.40;;;0.32;;
38783;SDS011;24531;45.502;12.238;2023-08-30T10:01:27;1.58;;;0.30;;
38783;SDS011;24531;45.502;12.238;2023-08-30T10:03:53;0.65;;;0.30;;
38783;SDS011;24531;45.502;12.238;2023-08-30T10:06:21;1.85;;;0.38;;
38783;SDS011;24531;45.502;12.238;2023-08-30T10:08:49;0.65;;;0.40;;
38783;SDS011;24531;45.502;12.238;2023-08-30T10:11:18;0.95;;;0.47;;
38783;SDS011;24531;45.502;12.238;2023-08-30T10:13:44;0.55;;;0.20;;
38783;SDS011;24531;45.502;12.238;2023-08-30T10:16:14;0.85;;;0.30;;
38783;SDS011;24531;45.502;12.238;2023-08-30T10:18:54;0.90;;;0.40;;
38783;SDS011;24531;45.502;12.238;2023-08-30T10:21:28;0.98;;;0.43;;
38783;SDS011;24531;45.502;12.238;2023-08-30T10:23:55;1.05;;;0.50;;
38783;SDS011;24531;45.502;12.238;2023-08-30T10:26:24;0.47;;;0.28;;
38783;SDS011;24531;45.502;12.238;2023-08-30T10:28:53;0.77;;;0.30;;
38783;SDS011;24531;45.502;12.238;2023-08-30T10:31:20;1.33;;;0.20;;
38783;SDS011;24531;45.502;12.238;2023-08-30T10:33:49;0.40;;;0.10;;
38783;SDS011;24531;45.502;12.238;2023-08-30T10:36:24;0.47;;;0.20;;
38783;SDS011;24531;45.502;12.238;2023-08-30T10:38:52;2.20;;;0.10;;
38783;SDS011;24531;45.502;12.238;2023-08-30T10:41:23;0.40;;;0.13;;
38783;SDS011;24531;45.502;12.238;2023-08-30T10:43:52;0.17;;;0.15;;
38783;SDS011;24531;45.502;12.238;2023-08-30T10:46:33;0.30;;;0.00;;
38783;SDS011;24531;45.502;12.238;2023-08-30T10:49:13;0.55;;;0.10;;
38783;SDS011;24531;45.502;12.238;2023-08-30T10:51:39;0.55;;;0.17;;
38783;SDS011;24531;45.502;12.238;2023-08-30T10:54:24;0.22;;;0.05;;
38783;SDS011;24531;45.502;12.238;2023-08-30T10:56:57;1.23;;;0.45;;
38783;SDS011;24531;45.502;12.238;2023-08-30T10:59:26;1.45;;;0.10;;
38783;SDS011;24531;45.502;12.238;2023-08-30T11:01:52;0.20;;;0.10;;
38783;SDS011;24531;45.502;12.238;2023-08-30T11:04:18;0.28;;;0.10;;
38783;SDS011;24531;45.502;12.238;2023-08-30T11:06:47;0.17;;;0.10;;
38783;SDS011;24531;45.502;12.238;2023-08-30T11:09:14;0.20;;;0.10;;
38783;SDS011;24531;45.502;12.238;2023-08-30T11:11:45;0.40;;;0.30;;
38783;SDS011;24531;45.502;12.238;2023-08-30T11:14:11;0.15;;;0.10;;
38783;SDS011;24531;45.502;12.238;2023-08-30T11:16:38;2.33;;;0.20;;
38783;SDS011;24531;45.502;12.238;2023-08-30T11:19:05;0.30;;;0.20;;
38783;SDS011;24531;45.502;12.238;2023-08-30T11:21:32;0.13;;;0.10;;
38783;SDS011;24531;45.502;12.238;2023-08-30T11:24:03;0.00;;;0.00;;
38783;SDS011;24531;45.502;12.238;2023-08-30T11:26:29;0.38;;;0.15;;
38783;SDS011;24531;45.502;12.238;2023-08-30T11:28:55;3.20;;;0.10;;
38783;SDS011;24531;45.502;12.238;2023-08-30T11:31:21;0.20;;;0.10;;
38783;SDS011;24531;45.502;12.238;2023-08-30T11:33:51;0.30;;;0.10;;
38783;SDS011;24531;45.502;12.238;2023-08-30T11:36:20;0.82;;;0.10;;
38783;SDS011;24531;45.502;12.238;2023-08-30T11:38:47;0.08;;;0.03;;
38783;SDS011;24531;45.502;12.238;2023-08-30T11:41:13;0.43;;;0.10;;
38783;SDS011;24531;45.502;12.238;2023-08-30T11:43:38;1.40;;;0.08;;
38783;SDS011;24531;45.502;12.238;2023-08-30T11:46:05;0.05;;;0.00;;
38783;SDS011;24531;45.502;12.238;2023-08-30T11:48:30;0.20;;;0.08;;
38783;SDS011;24531;45.502;12.238;2023-08-30T11:50:57;0.17;;;0.10;;
38783;SDS011;24531;45.502;12.238;2023-08-30T11:53:24;1.23;;;0.20;;
38783;SDS011;24531;45.502;12.238;2023-08-30T11:55:50;1.02;;;0.28;;
38783;SDS011;24531;45.502;12.238;2023-08-30T11:58:17;0.22;;;0.22;;
38783;SDS011;24531;45.502;12.238;2023-08-30T12:00:43;0.30;;;0.20;;
38783;SDS011;24531;45.502;12.238;2023-08-30T12:03:13;0.15;;;0.10;;
38783;SDS011;24531;45.502;12.238;2023-08-30T12:05:49;0.28;;;0.00;;
38783;SDS011;24531;45.502;12.238;2023-08-30T12:08:25;1.55;;;0.10;;
38783;SDS011;24531;45.502;12.238;2023-08-30T12:10:52;0.05;;;0.00;;
38783;SDS011;24531;45.502;12.238;2023-08-30T12:13:39;0.17;;;0.08;;
38783;SDS011;24531;45.502;12.238;2023-08-30T12:16:04;0.13;;;0.00;;
38783;SDS011;24531;45.502;12.238;2023-08-30T12:18:31;0.10;;;0.00;;
38783;SDS011;24531;45.502;12.238;2023-08-30T12:21:01;0.70;;;0.10;;
38783;SDS011;24531;45.502;12.238;2023-08-30T12:23:29;0.10;;;0.00;;
38783;SDS011;24531;45.502;12.238;2023-08-30T12:28:29;0.32;;;0.00;;
38783;SDS011;24531;45.502;12.238;2023-08-30T12:30:56;0.10;;;0.10;;
38783;SDS011;24531;45.502;12.238;2023-08-30T12:33:22;0.00;;;0.00;;
38783;SDS011;24531;45.502;12.238;2023-08-30T12:35:50;0.30;;;0.00;;
38783;SDS011;24531;45.502;12.238;2023-08-30T12:38:16;0.90;;;0.20;;
38783;SDS011;24531;45.502;12.238;2023-08-30T12:40:48;0.10;;;0.10;;
38783;SDS011;24531;45.502;12.238;2023-08-30T12:43:16;0.47;;;0.00;;
38783;SDS011;24531;45.502;12.238;2023-08-30T12:45:43;0.00;;;0.00;;
38783;SDS011;24531;45.502;12.238;2023-08-30T12:48:13;0.03;;;0.00;;
38783;SDS011;24531;45.502;12.238;2023-08-30T12:50:40;1.98;;;0.20;;
38783;SDS011;24531;45.502;12.238;2023-08-30T12:53:07;0.52;;;0.30;;
38783;SDS011;24531;45.502;12.238;2023-08-30T12:55:33;0.52;;;0.10;;
38783;SDS011;24531;45.502;12.238;2023-08-30T12:57:59;0.00;;;0.00;;
38783;SDS011;24531;45.502;12.238;2023-08-30T13:00:25;0.00;;;0.00;;
38783;SDS011;24531;45.502;12.238;2023-08-30T13:02:51;0.30;;;0.00;;
38783;SDS011;24531;45.502;12.238;2023-08-30T13:05:17;0.47;;;0.10;;
38783;SDS011;24531;45.502;12.238;2023-08-30T13:07:43;0.00;;;0.00;;
38783;SDS011;24531;45.502;12.238;2023-08-30T13:10:09;0.00;;;0.00;;
38783;SDS011;24531;45.502;12.238;2023-08-30T13:12:35;0.00;;;0.00;;
38783;SDS011;24531;45.502;12.238;2023-08-30T13:15:02;0.10;;;0.05;;
38783;SDS011;24531;45.502;12.238;2023-08-30T13:17:28;1.33;;;0.00;;
38783;SDS011;24531;45.502;12.238;2023-08-30T13:19:54;0.00;;;0.00;;
38783;SDS011;24531;45.502;12.238;2023-08-30T13:22:21;0.10;;;0.00;;
38783;SDS011;24531;45.502;12.238;2023-08-30T13:24:47;0.00;;;0.00;;
38783;SDS011;24531;45.502;12.238;2023-08-30T13:27:13;0.52;;;0.00;;
38783;SDS011;24531;45.502;12.238;2023-08-30T13:29:39;0.75;;;0.00;;
38783;SDS011;24531;45.502;12.238;2023-08-30T13:32:05;0.17;;;0.15;;
38783;SDS011;24531;45.502;12.238;2023-08-30T13:34:30;0.30;;;0.10;;
38783;SDS011;24531;45.502;12.238;2023-08-30T13:36:56;1.85;;;0.00;;
38783;SDS011;24531;45.502;12.238;2023-08-30T13:39:22;1.35;;;0.00;;
38783;SDS011;24531;45.502;12.238;2023-08-30T13:41:47;0.00;;;0.00;;
38783;SDS011;24531;45.502;12.238;2023-08-30T13:44:13;0.00;;;0.00;;
38783;SDS011;24531;45.502;12.238;2023-08-30T13:46:39;0.00;;;0.00;;
38783;SDS011;24531;45.502;12.238;2023-08-30T13:49:06;2.72;;;0.10;;
38783;SDS011;24531;45.502;12.238;2023-08-30T13:51:32;2.00;;;0.10;;
38783;SDS011;24531;45.502;12.238;2023-08-30T13:53:58;0.32;;;0.10;;
38783;SDS011;24531;45.502;12.238;2023-08-30T13:56:23;1.45;;;0.10;;
38783;SDS011;24531;45.502;12.238;2023-08-30T13:58:49;1.75;;;0.25;;
38783;SDS011;24531;45.502;12.238;2023-08-30T14:01:15;0.40;;;0.10;;
38783;SDS011;24531;45.502;12.238;2023-08-30T14:03:42;0.57;;;0.10;;
38783;SDS011;24531;45.502;12.238;2023-08-30T14:06:08;0.35;;;0.10;;
38783;SDS011;24531;45.502;12.238;2023-08-30T14:08:34;0.10;;;0.10;;
38783;SDS011;24531;45.502;12.238;2023-08-30T14:11:00;0.55;;;0.10;;
38783;SDS011;24531;45.502;12.238;2023-08-30T14:13:26;0.30;;;0.10;;
38783;SDS011;24531;45.502;12.238;2023-08-30T14:15:57;2.08;;;0.43;;
38783;SDS011;24531;45.502;12.238;2023-08-30T14:18:23;0.70;;;0.20;;
38783;SDS011;24531;45.502;12.238;2023-08-30T14:20:49;0.20;;;0.10;;
38783;SDS011;24531;45.502;12.238;2023-08-30T14:23:14;0.20;;;0.10;;
38783;SDS011;24531;45.502;12.238;2023-08-30T14:25:40;0.20;;;0.20;;
38783;SDS011;24531;45.502;12.238;2023-08-30T14:28:06;0.30;;;0.13;;
38783;SDS011;24531;45.502;12.238;2023-08-30T14:30:31;0.20;;;0.10;;
38783;SDS011;24531;45.502;12.238;2023-08-30T14:32:57;0.25;;;0.00;;
38783;SDS011;24531;45.502;12.238;2023-08-30T14:35:23;1.55;;;0.10;;
38783;SDS011;24531;45.502;12.238;2023-08-30T14:37:52;0.22;;;0.10;;
38783;SDS011;24531;45.502;12.238;2023-08-30T14:40:18;1.00;;;0.10;;